sensor_id;sensor_type;location;lat;lon;timestamp;pressure;altitude;pressure_sealevel;temperature;humidity
69630;BME280;56857;52.212;5.496;2023-12-20T00:02:16;101663.25;;;6.53;100.00
69630;BME280;56857;52.212;5.496;2023-12-20T00:04:42;101663.59;;;6.48;100.00
69630;BME280;56857;52.212;5.496;2023-12-20T00:07:07;101652.38;;;6.46;100.00
69630;BME280;56857;52.212;5.496;2023-12-20T00:09:33;101646.38;;;6.44;100.00
69630;BME280;56857;52.212;5.496;2023-12-20T00:11:58;101649.13;;;6.43;100.00
69630;BME280;56857;52.212;5.496;2023-12-20T00:14:23;101640.50;;;6.41;100.00
69630;BME280;56857;52.212;5.496;2023-12-20T00:16:48;101641.34;;;6.41;100.00
69630;BME280;56857;52.212;5.496;2023-12-20T00:19:14;101643.97;;;6.41;100.00
69630;BME280;56857;52.212;5.496;2023-12-20T00:21:39;101647.44;;;6.42;100.00
69630;BME280;56857;52.212;5.496;2023-12-20T00:24:04;101632.72;;;6.39;100.00
69630;BME280;56857;52.212;5.496;2023-12-20T00:26:30;101642.66;;;6.36;100.00
69630;BME280;56857;52.212;5.496;2023-12-20T00:28:56;101630.47;;;6.35;100.00
69630;BME280;56857;52.212;5.496;2023-12-20T00:31:21;101636.81;;;6.32;100.00
69630;BME280;56857;52.212;5.496;2023-12-20T00:33:46;101638.72;;;6.30;100.00
69630;BME280;56857;52.212;5.496;2023-12-20T00:36:11;101644.97;;;6.29;100.00
69630;BME280;56857;52.212;5.496;2023-12-20T00:38:37;101640.75;;;6.26;100.00
69630;BME280;56857;52.212;5.496;2023-12-20T00:41:02;101643.41;;;6.26;100.00
69630;BME280;56857;52.212;5.496;2023-12-20T00:43:28;101644.38;;;6.25;100.00
69630;BME280;56857;52.212;5.496;2023-12-20T00:45:53;101645.44;;;6.23;100.00
69630;BME280;56857;52.212;5.496;2023-12-20T00:48:18;101642.94;;;6.21;100.00
69630;BME280;56857;52.212;5.496;2023-12-20T00:50:44;101635.16;;;6.20;100.00
69630;BME280;56857;52.212;5.496;2023-12-20T00:53:09;101631.69;;;6.19;100.00
69630;BME280;56857;52.212;5.496;2023-12-20T00:55:34;101633.47;;;6.19;100.00
69630;BME280;56857;52.212;5.496;2023-12-20T00:58:01;101636.13;;;6.19;100.00
69630;BME280;56857;52.212;5.496;2023-12-20T01:00:26;101630.84;;;6.19;100.00
69630;BME280;56857;52.212;5.496;2023-12-20T01:02:51;101635.28;;;6.18;100.00
69630;BME280;56857;52.212;5.496;2023-12-20T01:05:18;101631.78;;;6.18;100.00
69630;BME280;56857;52.212;5.496;2023-12-20T01:07:43;101620.56;;;6.16;100.00
69630;BME280;56857;52.212;5.496;2023-12-20T01:10:08;101623.06;;;6.17;100.00
69630;BME280;56857;52.212;5.496;2023-12-20T01:12:36;101615.16;;;6.17;100.00
69630;BME280;56857;52.212;5.496;2023-12-20T01:15:01;101617.94;;;6.16;100.00
69630;BME280;56857;52.212;5.496;2023-12-20T01:17:27;101627.75;;;6.14;100.00
69630;BME280;56857;52.212;5.496;2023-12-20T01:19:52;101628.69;;;6.13;100.00
69630;BME280;56857;52.212;5.496;2023-12-20T01:22:17;101629.66;;;6.12;100.00
69630;BME280;56857;52.212;5.496;2023-12-20T01:24:44;101629.78;;;6.10;100.00
69630;BME280;56857;52.212;5.496;2023-12-20T01:27:09;101647.22;;;6.11;100.00
69630;BME280;56857;52.212;5.496;2023-12-20T01:29:34;101633.25;;;6.11;100.00
69630;BME280;56857;52.212;5.496;2023-12-20T01:32:00;101635.03;;;6.10;100.00
69630;BME280;56857;52.212;5.496;2023-12-20T01:34:25;101632.41;;;6.10;100.00
69630;BME280;56857;52.212;5.496;2023-12-20T01:36:50;101638.75;;;6.08;100.00
69630;BME280;56857;52.212;5.496;2023-12-20T01:39:17;101626.41;;;6.08;100.00
69630;BME280;56857;52.212;5.496;2023-12-20T01:41:42;101628.94;;;6.10;100.00
69630;BME280;56857;52.212;5.496;2023-12-20T01:44:07;101621.88;;;6.10;100.00
69630;BME280;56857;52.212;5.496;2023-12-20T01:46:32;101616.75;;;6.09;100.00
69630;BME280;56857;52.212;5.496;2023-12-20T01:48:59;101608.13;;;6.07;100.00
69630;BME280;56857;52.212;5.496;2023-12-20T01:51:25;101610.63;;;6.08;100.00
69630;BME280;56857;52.212;5.496;2023-12-20T01:53:51;101614.94;;;6.09;100.00
69630;BME280;56857;52.212;5.496;2023-12-20T01:56:16;101613.97;;;6.10;100.00
69630;BME280;56857;52.212;5.496;2023-12-20T01:58:44;101624.41;;;6.12;100.00
69630;BME280;56857;52.212;5.496;2023-12-20T02:01:10;101621.88;;;6.10;100.00
69630;BME280;56857;52.212;5.496;2023-12-20T02:03:35;101621.88;;;6.10;100.00
69630;BME280;56857;52.212;5.496;2023-12-20T02:06:01;101625.34;;;6.11;100.00
69630;BME280;56857;52.212;5.496;2023-12-20T02:08:26;101624.28;;;6.13;100.00
69630;BME280;56857;52.212;5.496;2023-12-20T02:10:51;101623.44;;;6.13;100.00
69630;BME280;56857;52.212;5.496;2023-12-20T02:13:17;101616.38;;;6.13;100.00
69630;BME280;56857;52.212;5.496;2023-12-20T02:15:42;101616.50;;;6.12;100.00
69630;BME280;56857;52.212;5.496;2023-12-20T02:18:07;101624.41;;;6.12;100.00
69630;BME280;56857;52.212;5.496;2023-12-20T02:20:33;101627.75;;;6.14;100.00
69630;BME280;56857;52.212;5.496;2023-12-20T02:22:58;101619.84;;;6.14;100.00
69630;BME280;56857;52.212;5.496;2023-12-20T02:25:23;101620.56;;;6.16;100.00
69630;BME280;56857;52.212;5.496;2023-12-20T02:27:49;101623.06;;;6.17;100.00
69630;BME280;56857;52.212;5.496;2023-12-20T02:30:14;101617.69;;;6.19;100.00
69630;BME280;56857;52.212;5.496;2023-12-20T02:32:40;101615.16;;;6.17;100.00
69630;BME280;56857;52.212;5.496;2023-12-20T02:35:05;101608.97;;;6.18;100.00
69630;BME280;56857;52.212;5.496;2023-12-20T02:37:32;101602.97;;;6.16;100.00
69630;BME280;56857;52.212;5.496;2023-12-20T02:39:57;101608.38;;;6.15;100.00
69630;BME280;56857;52.212;5.496;2023-12-20T02:42:23;101596.97;;;6.14;100.00
69630;BME280;56857;52.212;5.496;2023-12-20T02:44:48;101598.78;;;6.14;100.00
69630;BME280;56857;52.212;5.496;2023-12-20T02:47:13;101602.25;;;6.14;100.00
69630;BME280;56857;52.212;5.496;2023-12-20T02:49:39;101593.66;;;6.12;100.00
69630;BME280;56857;52.212;5.496;2023-12-20T02:52:04;101597.13;;;6.13;100.00
69630;BME280;56857;52.212;5.496;2023-12-20T02:54:31;101596.97;;;6.14;100.00
69630;BME280;56857;52.212;5.496;2023-12-20T02:56:56;101596.88;;;6.16;100.00
69630;BME280;56857;52.212;5.496;2023-12-20T02:59:21;101594.25;;;6.16;100.00
69630;BME280;56857;52.212;5.496;2023-12-20T03:01:47;101592.31;;;6.18;100.00
69630;BME280;56857;52.212;5.496;2023-12-20T03:04:12;101583.72;;;6.16;100.00
69630;BME280;56857;52.212;5.496;2023-12-20T03:06:39;101574.84;;;6.17;100.00
69630;BME280;56857;52.212;5.496;2023-12-20T03:09:04;101573.88;;;6.18;100.00
69630;BME280;56857;52.212;5.496;2023-12-20T03:11:30;101573.03;;;6.17;100.00
69630;BME280;56857;52.212;5.496;2023-12-20T03:13:56;101578.31;;;6.17;100.00
69630;BME280;56857;52.212;5.496;2023-12-20T03:16:22;101561.69;;;6.17;100.00
69630;BME280;56857;52.212;5.496;2023-12-20T03:18:47;101564.31;;;6.17;100.00
69630;BME280;56857;52.212;5.496;2023-12-20T03:21:12;101565.16;;;6.17;100.00
69630;BME280;56857;52.212;5.496;2023-12-20T03:23:38;101552.81;;;6.18;100.00
69630;BME280;56857;52.212;5.496;2023-12-20T03:26:06;101560.72;;;6.18;100.00
69630;BME280;56857;52.212;5.496;2023-12-20T03:28:32;101550.47;;;6.15;100.00
69630;BME280;56857;52.212;5.496;2023-12-20T03:30:57;101560.03;;;6.16;100.00
69630;BME280;56857;52.212;5.496;2023-12-20T03:33:22;101561.00;;;6.15;100.00
69630;BME280;56857;52.212;5.496;2023-12-20T03:35:48;101558.47;;;6.13;100.00
69630;BME280;56857;52.212;5.496;2023-12-20T03:38:13;101562.06;;;6.12;100.00
69630;BME280;56857;52.212;5.496;2023-12-20T03:40:38;101568.25;;;6.11;100.00
69630;BME280;56857;52.212;5.496;2023-12-20T03:43:03;101570.91;;;6.11;100.00
69630;BME280;56857;52.212;5.496;2023-12-20T03:45:29;101563.00;;;6.11;100.00
69630;BME280;56857;52.212;5.496;2023-12-20T03:47:54;101563.00;;;6.11;100.00
69630;BME280;56857;52.212;5.496;2023-12-20T03:50:21;101563.13;;;6.10;100.00
69630;BME280;56857;52.212;5.496;2023-12-20T03:52:47;101565.78;;;6.10;100.00
69630;BME280;56857;52.212;5.496;2023-12-20T03:55:13;101571.13;;;6.08;100.00
69630;BME280;56857;52.212;5.496;2023-12-20T03:57:39;101565.88;;;6.08;100.00
69630;BME280;56857;52.212;5.496;2023-12-20T04:00:06;101563.38;;;6.07;100.00
69630;BME280;56857;52.212;5.496;2023-12-20T04:02:32;101568.66;;;6.07;100.00
69630;BME280;56857;52.212;5.496;2023-12-20T04:04:57;101567.81;;;6.06;100.00
69630;BME280;56857;52.212;5.496;2023-12-20T04:07:22;101572.00;;;6.09;100.00
69630;BME280;56857;52.212;5.496;2023-12-20T04:09:48;101568.66;;;6.07;100.00
69630;BME280;56857;52.212;5.496;2023-12-20T04:12:13;101562.56;;;6.06;100.00
69630;BME280;56857;52.212;5.496;2023-12-20T04:14:38;101561.59;;;6.07;100.00
69630;BME280;56857;52.212;5.496;2023-12-20T04:17:04;101554.50;;;6.08;100.00
69630;BME280;56857;52.212;5.496;2023-12-20T04:19:29;101556.22;;;6.09;100.00
69630;BME280;56857;52.212;5.496;2023-12-20T04:21:54;101561.47;;;6.09;100.00
69630;BME280;56857;52.212;5.496;2023-12-20T04:24:20;101559.69;;;6.09;100.00
69630;BME280;56857;52.212;5.496;2023-12-20T04:26:45;101557.88;;;6.10;100.00
69630;BME280;56857;52.212;5.496;2023-12-20T04:29:10;101561.22;;;6.12;100.00
69630;BME280;56857;52.212;5.496;2023-12-20T04:31:36;101567.31;;;6.12;100.00
69630;BME280;56857;52.212;5.496;2023-12-20T04:34:01;101560.38;;;6.11;100.00
69630;BME280;56857;52.212;5.496;2023-12-20T04:36:26;101562.91;;;6.13;100.00
69630;BME280;56857;52.212;5.496;2023-12-20T04:38:53;101555.84;;;6.13;100.00
69630;BME280;56857;52.212;5.496;2023-12-20T04:41:18;101551.41;;;6.14;100.00
69630;BME280;56857;52.212;5.496;2023-12-20T04:43:44;101547.69;;;6.16;100.00
69630;BME280;56857;52.212;5.496;2023-12-20T04:46:09;101555.44;;;6.18;100.00
69630;BME280;56857;52.212;5.496;2023-12-20T04:48:34;101556.41;;;6.17;100.00
69630;BME280;56857;52.212;5.496;2023-12-20T04:50:59;101554.50;;;6.19;100.00
69630;BME280;56857;52.212;5.496;2023-12-20T04:53:25;101546.47;;;6.20;100.00
69630;BME280;56857;52.212;5.496;2023-12-20T04:55:50;101550.81;;;6.21;100.00
69630;BME280;56857;52.212;5.496;2023-12-20T04:58:15;101549.81;;;6.22;100.00
69630;BME280;56857;52.212;5.496;2023-12-20T05:00:41;101549.69;;;6.24;100.00
69630;BME280;56857;52.212;5.496;2023-12-20T05:03:06;101541.69;;;6.25;100.00
69630;BME280;56857;52.212;5.496;2023-12-20T05:05:31;101548.75;;;6.25;100.00
69630;BME280;56857;52.212;5.496;2023-12-20T05:07:57;101553.78;;;6.28;100.00
69630;BME280;56857;52.212;5.496;2023-12-20T05:10:22;101551.00;;;6.30;100.00
69630;BME280;56857;52.212;5.496;2023-12-20T05:12:47;101551.81;;;6.30;100.00
69630;BME280;56857;52.212;5.496;2023-12-20T05:15:12;101542.84;;;6.33;100.00
69630;BME280;56857;52.212;5.496;2023-12-20T05:17:38;101545.47;;;6.33;100.00
69630;BME280;56857;52.212;5.496;2023-12-20T05:20:03;101555.19;;;6.32;100.00
69630;BME280;56857;52.212;5.496;2023-12-20T05:22:29;101554.22;;;6.33;100.00
69630;BME280;56857;52.212;5.496;2023-12-20T05:24:54;101553.28;;;6.34;100.00
69630;BME280;56857;52.212;5.496;2023-12-20T05:27:20;101553.97;;;6.36;100.00
69630;BME280;56857;52.212;5.496;2023-12-20T05:29:45;101555.78;;;6.36;100.00
69630;BME280;56857;52.212;5.496;2023-12-20T05:32:10;101550.50;;;6.36;100.00
69630;BME280;56857;52.212;5.496;2023-12-20T05:34:36;101553.03;;;6.37;100.00
69630;BME280;56857;52.212;5.496;2023-12-20T05:37:01;101547.75;;;6.37;100.00
69630;BME280;56857;52.212;5.496;2023-12-20T05:39:26;101545.97;;;6.38;100.00
69630;BME280;56857;52.212;5.496;2023-12-20T05:41:51;101540.69;;;6.38;100.00
69630;BME280;56857;52.212;5.496;2023-12-20T05:44:18;101540.69;;;6.38;100.00
69630;BME280;56857;52.212;5.496;2023-12-20T05:46:43;101546.91;;;6.37;100.00
69630;BME280;56857;52.212;5.496;2023-12-20T05:49:09;101544.25;;;6.37;100.00
69630;BME280;56857;52.212;5.496;2023-12-20T05:51:34;101543.31;;;6.38;100.00
69630;BME280;56857;52.212;5.496;2023-12-20T05:53:59;101547.75;;;6.37;100.00
69630;BME280;56857;52.212;5.496;2023-12-20T05:56:25;101545.81;;;6.39;100.00
69630;BME280;56857;52.212;5.496;2023-12-20T05:58:50;101555.53;;;6.39;100.00
69630;BME280;56857;52.212;5.496;2023-12-20T06:01:15;101544.88;;;6.40;100.00
69630;BME280;56857;52.212;5.496;2023-12-20T06:03:42;101542.34;;;6.39;100.00
69630;BME280;56857;52.212;5.496;2023-12-20T06:06:08;101538.88;;;6.38;100.00
69630;BME280;56857;52.212;5.496;2023-12-20T06:08:33;101542.50;;;6.37;100.00
69630;BME280;56857;52.212;5.496;2023-12-20T06:10:59;101537.09;;;6.39;100.00
69630;BME280;56857;52.212;5.496;2023-12-20T06:13:24;101538.88;;;6.38;100.00
69630;BME280;56857;52.212;5.496;2023-12-20T06:15:49;101525.72;;;6.38;100.00
69630;BME280;56857;52.212;5.496;2023-12-20T06:18:14;101527.38;;;6.39;100.00
69630;BME280;56857;52.212;5.496;2023-12-20T06:20:40;101524.75;;;6.39;100.00
69630;BME280;56857;52.212;5.496;2023-12-20T06:23:05;101523.91;;;6.39;100.00
69630;BME280;56857;52.212;5.496;2023-12-20T06:25:30;101523.91;;;6.39;100.00
69630;BME280;56857;52.212;5.496;2023-12-20T06:27:56;101527.38;;;6.39;100.00
69630;BME280;56857;52.212;5.496;2023-12-20T06:30:21;101522.13;;;6.39;100.00
69630;BME280;56857;52.212;5.496;2023-12-20T06:32:46;101536.13;;;6.40;100.00
69630;BME280;56857;52.212;5.496;2023-12-20T06:35:12;101539.63;;;6.40;100.00
69630;BME280;56857;52.212;5.496;2023-12-20T06:37:37;101519.38;;;6.41;100.00
69630;BME280;56857;52.212;5.496;2023-12-20T06:40:03;101515.66;;;6.43;100.00
69630;BME280;56857;52.212;5.496;2023-12-20T06:42:29;101522.69;;;6.43;100.00
69630;BME280;56857;52.212;5.496;2023-12-20T06:44:54;101526.06;;;6.45;100.00
69630;BME280;56857;52.212;5.496;2023-12-20T06:47:19;101515.53;;;6.45;100.00
69630;BME280;56857;52.212;5.496;2023-12-20T06:49:45;101511.09;;;6.45;100.00
69630;BME280;56857;52.212;5.496;2023-12-20T06:52:10;101507.50;;;6.46;100.00
69630;BME280;56857;52.212;5.496;2023-12-20T06:54:35;101519.69;;;6.47;100.00
69630;BME280;56857;52.212;5.496;2023-12-20T06:57:01;101508.19;;;6.48;100.00
69630;BME280;56857;52.212;5.496;2023-12-20T06:59:27;101516.94;;;6.49;100.00
69630;BME280;56857;52.212;5.496;2023-12-20T07:01:52;101506.41;;;6.49;100.00
69630;BME280;56857;52.212;5.496;2023-12-20T07:04:17;101506.28;;;6.50;100.00
69630;BME280;56857;52.212;5.496;2023-12-20T07:06:42;101517.53;;;6.53;100.00
69630;BME280;56857;52.212;5.496;2023-12-20T07:09:08;101512.28;;;6.53;100.00
69630;BME280;56857;52.212;5.496;2023-12-20T07:11:33;101521.00;;;6.53;100.00
69630;BME280;56857;52.212;5.496;2023-12-20T07:13:58;101514.75;;;6.54;100.00
69630;BME280;56857;52.212;5.496;2023-12-20T07:16:24;101513.94;;;6.54;100.00
69630;BME280;56857;52.212;5.496;2023-12-20T07:18:50;101512.97;;;6.55;100.00
69630;BME280;56857;52.212;5.496;2023-12-20T07:21:15;101507.69;;;6.55;100.00
69630;BME280;56857;52.212;5.496;2023-12-20T07:23:41;101504.09;;;6.56;100.00
69630;BME280;56857;52.212;5.496;2023-12-20T07:26:06;101494.41;;;6.56;100.00
69630;BME280;56857;52.212;5.496;2023-12-20T07:28:31;101500.50;;;6.57;100.00
69630;BME280;56857;52.212;5.496;2023-12-20T07:30:57;101493.28;;;6.59;100.00
69630;BME280;56857;52.212;5.496;2023-12-20T07:33:22;101496.78;;;6.59;100.00
69630;BME280;56857;52.212;5.496;2023-12-20T07:35:47;101491.63;;;6.58;100.00
69630;BME280;56857;52.212;5.496;2023-12-20T07:38:13;101482.66;;;6.60;100.00
69630;BME280;56857;52.212;5.496;2023-12-20T07:40:38;101477.38;;;6.60;100.00
69630;BME280;56857;52.212;5.496;2023-12-20T07:43:03;101488.75;;;6.61;100.00
69630;BME280;56857;52.212;5.496;2023-12-20T07:45:29;101498.44;;;6.60;100.00
69630;BME280;56857;52.212;5.496;2023-12-20T07:47:55;101498.31;;;6.62;100.00
69630;BME280;56857;52.212;5.496;2023-12-20T07:50:21;101505.28;;;6.63;100.00
69630;BME280;56857;52.212;5.496;2023-12-20T07:52:46;101506.09;;;6.63;100.00
69630;BME280;56857;52.212;5.496;2023-12-20T07:55:11;101513.88;;;6.65;100.00
69630;BME280;56857;52.212;5.496;2023-12-20T07:57:37;101525.25;;;6.65;100.00
69630;BME280;56857;52.212;5.496;2023-12-20T08:00:02;101525.94;;;6.67;100.00
69630;BME280;56857;52.212;5.496;2023-12-20T08:02:27;101523.31;;;6.67;100.00
69630;BME280;56857;52.212;5.496;2023-12-20T08:04:54;101528.47;;;6.69;100.00
69630;BME280;56857;52.212;5.496;2023-12-20T08:07:19;101526.69;;;6.69;100.00
69630;BME280;56857;52.212;5.496;2023-12-20T08:09:44;101530.97;;;6.70;100.00
69630;BME280;56857;52.212;5.496;2023-12-20T08:12:10;101540.56;;;6.71;100.00
69630;BME280;56857;52.212;5.496;2023-12-20T08:14:35;101528.22;;;6.72;100.00
69630;BME280;56857;52.212;5.496;2023-12-20T08:17:00;101539.44;;;6.74;100.00
69630;BME280;56857;52.212;5.496;2023-12-20T08:19:32;101525.34;;;6.75;100.00
69630;BME280;56857;52.212;5.496;2023-12-20T08:21:57;101527.81;;;6.77;100.00
69630;BME280;56857;52.212;5.496;2023-12-20T08:24:22;101527.72;;;6.78;100.00
69630;BME280;56857;52.212;5.496;2023-12-20T08:26:48;101517.19;;;6.78;100.00
69630;BME280;56857;52.212;5.496;2023-12-20T08:29:13;101518.84;;;6.79;100.00
69630;BME280;56857;52.212;5.496;2023-12-20T08:31:39;101517.75;;;6.82;100.00
69630;BME280;56857;52.212;5.496;2023-12-20T08:34:04;101514.13;;;6.83;100.00
69630;BME280;56857;52.212;5.496;2023-12-20T08:36:30;101514.97;;;6.83;100.00
69630;BME280;56857;52.212;5.496;2023-12-20T08:38:55;101509.84;;;6.82;100.00
69630;BME280;56857;52.212;5.496;2023-12-20T08:41:20;101512.34;;;6.83;100.00
69630;BME280;56857;52.212;5.496;2023-12-20T08:43:45;101511.41;;;6.84;100.00
69630;BME280;56857;52.212;5.496;2023-12-20T08:46:11;101517.50;;;6.85;100.00
69630;BME280;56857;52.212;5.496;2023-12-20T08:48:36;101511.25;;;6.86;100.00
69630;BME280;56857;52.212;5.496;2023-12-20T08:51:01;101508.63;;;6.86;100.00
69630;BME280;56857;52.212;5.496;2023-12-20T08:53:27;101512.91;;;6.87;100.00
69630;BME280;56857;52.212;5.496;2023-12-20T08:55:52;101519.03;;;6.87;100.00
69630;BME280;56857;52.212;5.496;2023-12-20T08:58:18;101512.91;;;6.87;100.00
69630;BME280;56857;52.212;5.496;2023-12-20T09:00:45;101515.44;;;6.88;100.00
69630;BME280;56857;52.212;5.496;2023-12-20T09:03:10;101519.88;;;6.88;100.00
69630;BME280;56857;52.212;5.496;2023-12-20T09:05:37;101517.25;;;6.88;100.00
69630;BME280;56857;52.212;5.496;2023-12-20T09:08:03;101511.13;;;6.87;100.00
69630;BME280;56857;52.212;5.496;2023-12-20T09:10:29;101506.69;;;6.88;100.00
69630;BME280;56857;52.212;5.496;2023-12-20T09:12:56;101502.25;;;6.88;100.00
69630;BME280;56857;52.212;5.496;2023-12-20T09:15:22;101506.56;;;6.89;100.00
69630;BME280;56857;52.212;5.496;2023-12-20T09:17:47;101508.34;;;6.89;100.00
69630;BME280;56857;52.212;5.496;2023-12-20T09:20:12;101512.78;;;6.88;100.00
69630;BME280;56857;52.212;5.496;2023-12-20T09:22:38;101508.25;;;6.90;100.00
69630;BME280;56857;52.212;5.496;2023-12-20T09:25:04;101516.16;;;6.90;100.00
69630;BME280;56857;52.212;5.496;2023-12-20T09:27:29;101512.41;;;6.93;100.00
69630;BME280;56857;52.212;5.496;2023-12-20T09:29:55;101512.41;;;6.93;100.00
69630;BME280;56857;52.212;5.496;2023-12-20T09:32:20;101508.81;;;6.94;100.00
69630;BME280;56857;52.212;5.496;2023-12-20T09:34:46;101505.06;;;6.96;100.00
69630;BME280;56857;52.212;5.496;2023-12-20T09:37:12;101497.75;;;7.00;100.00
69630;BME280;56857;52.212;5.496;2023-12-20T09:39:37;101499.28;;;7.03;100.00
69630;BME280;56857;52.212;5.496;2023-12-20T09:42:03;101500.13;;;7.03;100.00
69630;BME280;56857;52.212;5.496;2023-12-20T09:44:30;101499.72;;;7.08;100.00
69630;BME280;56857;52.212;5.496;2023-12-20T09:46:56;101509.75;;;7.14;100.00
69630;BME280;56857;52.212;5.496;2023-12-20T09:49:22;101511.41;;;7.15;100.00
69630;BME280;56857;52.212;5.496;2023-12-20T09:51:50;101513.09;;;7.16;100.00
69630;BME280;56857;52.212;5.496;2023-12-20T09:54:20;101511.03;;;7.19;100.00
69630;BME280;56857;52.212;5.496;2023-12-20T09:56:46;101506.78;;;7.28;100.00
69630;BME280;56857;52.212;5.496;2023-12-20T09:59:12;101504.31;;;7.36;100.00
69630;BME280;56857;52.212;5.496;2023-12-20T10:01:41;101509.78;;;7.45;100.00
69630;BME280;56857;52.212;5.496;2023-12-20T10:04:12;101516.28;;;7.50;100.00
69630;BME280;56857;52.212;5.496;2023-12-20T10:06:41;101519.38;;;7.55;100.00
69630;BME280;56857;52.212;5.496;2023-12-20T10:09:08;101526.22;;;7.58;100.00
69630;BME280;56857;52.212;5.496;2023-12-20T10:11:37;101545.13;;;7.63;100.00
69630;BME280;56857;52.212;5.496;2023-12-20T10:14:04;101536.66;;;7.69;100.00
69630;BME280;56857;52.212;5.496;2023-12-20T10:16:30;101543.34;;;7.73;100.00
69630;BME280;56857;52.212;5.496;2023-12-20T10:18:56;101541.38;;;7.75;100.00
69630;BME280;56857;52.212;5.496;2023-12-20T10:21:25;101534.44;;;7.74;100.00
69630;BME280;56857;52.212;5.496;2023-12-20T10:23:51;101534.44;;;7.74;100.00
69630;BME280;56857;52.212;5.496;2023-12-20T10:26:26;101528.47;;;7.72;100.00
69630;BME280;56857;52.212;5.496;2023-12-20T10:29:00;101521.53;;;7.71;100.00
69630;BME280;56857;52.212;5.496;2023-12-20T10:31:35;101523.19;;;7.72;100.00
69630;BME280;56857;52.212;5.496;2023-12-20T10:34:01;101525.81;;;7.72;100.00
69630;BME280;56857;52.212;5.496;2023-12-20T10:36:29;101521.41;;;7.73;100.00
69630;BME280;56857;52.212;5.496;2023-12-20T10:38:55;101516.69;;;7.76;100.00
69630;BME280;56857;52.212;5.496;2023-12-20T10:41:31;101520.34;;;7.85;100.00
69630;BME280;56857;52.212;5.496;2023-12-20T10:44:02;101512.72;;;7.92;100.00
69630;BME280;56857;52.212;5.496;2023-12-20T10:46:28;101512.28;;;7.96;100.00
69630;BME280;56857;52.212;5.496;2023-12-20T10:48:54;101508.66;;;7.97;100.00
69630;BME280;56857;52.212;5.496;2023-12-20T10:51:20;101503.25;;;7.99;100.00
69630;BME280;56857;52.212;5.496;2023-12-20T10:53:47;101502.44;;;7.98;100.00
69630;BME280;56857;52.212;5.496;2023-12-20T10:56:15;101507.72;;;7.98;100.00
69630;BME280;56857;52.212;5.496;2023-12-20T10:58:42;101502.56;;;7.97;100.00
69630;BME280;56857;52.212;5.496;2023-12-20T11:01:08;101501.72;;;7.96;100.00
69630;BME280;56857;52.212;5.496;2023-12-20T11:03:35;101503.53;;;7.96;100.00
69630;BME280;56857;52.212;5.496;2023-12-20T11:06:29;101496.59;;;7.95;100.00
69630;BME280;56857;52.212;5.496;2023-12-20T11:09:13;101490.47;;;7.94;100.00
69630;BME280;56857;52.212;5.496;2023-12-20T11:14:22;101477.13;;;7.96;100.00
69630;BME280;56857;52.212;5.496;2023-12-20T11:16:49;101487.28;;;8.00;100.00
69630;BME280;56857;52.212;5.496;2023-12-20T11:19:14;101480.34;;;8.09;100.00
69630;BME280;56857;52.212;5.496;2023-12-20T11:21:41;101470.50;;;8.21;100.00
69630;BME280;56857;52.212;5.496;2023-12-20T11:24:06;101466.75;;;8.33;100.00
69630;BME280;56857;52.212;5.496;2023-12-20T11:26:32;101463.56;;;8.39;100.00
69630;BME280;56857;52.212;5.496;2023-12-20T11:29:33;101460.94;;;8.49;100.00
69630;BME280;56857;52.212;5.496;2023-12-20T11:32:03;101461.03;;;8.57;100.00
69630;BME280;56857;52.212;5.496;2023-12-20T11:34:31;101456.19;;;8.62;100.00
69630;BME280;56857;52.212;5.496;2023-12-20T11:36:58;101469.94;;;8.66;100.00
69630;BME280;56857;52.212;5.496;2023-12-20T11:39:25;101459.38;;;8.66;100.00
69630;BME280;56857;52.212;5.496;2023-12-20T11:41:51;101463.66;;;8.67;100.00
69630;BME280;56857;52.212;5.496;2023-12-20T11:44:17;101456.59;;;8.67;100.00
69630;BME280;56857;52.212;5.496;2023-12-20T11:46:44;101457.44;;;8.68;100.00
69630;BME280;56857;52.212;5.496;2023-12-20T11:49:09;101460.91;;;8.68;100.00
69630;BME280;56857;52.212;5.496;2023-12-20T11:51:34;101451.44;;;8.66;100.00
69630;BME280;56857;52.212;5.496;2023-12-20T11:54:00;101443.66;;;8.64;100.00
69630;BME280;56857;52.212;5.496;2023-12-20T11:56:25;101436.16;;;8.59;100.00
69630;BME280;56857;52.212;5.496;2023-12-20T11:58:50;101439.78;;;8.58;100.00
69630;BME280;56857;52.212;5.496;2023-12-20T12:01:16;101433.66;;;8.58;100.00
69630;BME280;56857;52.212;5.496;2023-12-20T12:03:41;101431.97;;;8.57;100.00
69630;BME280;56857;52.212;5.496;2023-12-20T12:06:06;101431.00;;;8.58;100.00
69630;BME280;56857;52.212;5.496;2023-12-20T12:08:32;101423.22;;;8.56;100.00
69630;BME280;56857;52.212;5.496;2023-12-20T12:10:57;101438.41;;;8.54;100.00
69630;BME280;56857;52.212;5.496;2023-12-20T12:13:23;101431.41;;;8.53;100.00
69630;BME280;56857;52.212;5.496;2023-12-20T12:15:48;101431.56;;;8.52;100.00
69630;BME280;56857;52.212;5.496;2023-12-20T12:18:17;101442.16;;;8.52;100.00
69630;BME280;56857;52.212;5.496;2023-12-20T12:20:43;101442.28;;;8.50;100.00
69630;BME280;56857;52.212;5.496;2023-12-20T12:23:08;101433.25;;;8.53;100.00
69630;BME280;56857;52.212;5.496;2023-12-20T12:25:35;101419.47;;;8.59;100.00
69630;BME280;56857;52.212;5.496;2023-12-20T12:28:01;101413.72;;;8.64;100.00
69630;BME280;56857;52.212;5.496;2023-12-20T12:30:27;101409.84;;;8.68;100.00
69630;BME280;56857;52.212;5.496;2023-12-20T12:32:53;101404.28;;;8.71;100.00
69630;BME280;56857;52.212;5.496;2023-12-20T12:35:19;101399.66;;;8.73;100.00
69630;BME280;56857;52.212;5.496;2023-12-20T12:37:45;101405.66;;;8.75;100.00
69630;BME280;56857;52.212;5.496;2023-12-20T12:40:13;101410.81;;;8.76;100.00
69630;BME280;56857;52.212;5.496;2023-12-20T12:42:39;101399.53;;;8.74;100.00
69630;BME280;56857;52.212;5.496;2023-12-20T12:45:06;101398.72;;;8.74;100.00
69630;BME280;56857;52.212;5.496;2023-12-20T12:47:31;101396.06;;;8.74;100.00